CheckWX is a tool to help pilots better visualize weather data.  It is not intended as a substitute for an official pre-flight weather briefing.

16:31:37 UTC

KEDN METAR
Enterprise Municipal Airport
Enterprise, Alabama, USA
Current

17 mins ago

KEDN 071615Z AUTO 24005KT 10SM CLR 25/16 A3010 RMK AO2 T02530163
Observed
Apr-7 @ 16:15 UTC
Wind
  • 240° at 5 KTS
Visibility
Flight Rules
VFR
Cloud Levels
  • Clear skies
Temperature
25°C / 77°F
Dewpoint
16°C / 61°F
Humidity
57%
Altimeter
30.1" Hg
Pressure
1019.32 hPa
Previous

37 mins ago

KEDN 071555Z AUTO 21007KT 10SM CLR 25/17 A3011 RMK AO2 T02460165
Observed
Apr-7 @ 15:55 UTC
Wind
  • 210° at 7 KTS
Visibility
Flight Rules
VFR
Cloud Levels
  • Clear skies
Temperature
25°C / 77°F
Dewpoint
16°C / 61°F
Humidity
57%
Altimeter
30.11" Hg
Pressure
1019.62 hPa
Previous

57 mins ago

KEDN 071535Z AUTO 24007KT 10SM CLR 25/16 A3011 RMK AO2 T02450164
Observed
Apr-7 @ 15:35 UTC
Wind
  • 240° at 7 KTS
Visibility
Flight Rules
VFR
Cloud Levels
  • Clear skies
Temperature
24°C / 75°F
Dewpoint
16°C / 61°F
Humidity
61%
Altimeter
30.11" Hg
Pressure
1019.62 hPa